sensor_id;sensor_type;location;lat;lon;timestamp;P1;durP1;ratioP1;P2;durP2;ratioP2
60169;SDS011;46042;49.444;6.862;2023-03-11T00:00:28;3.43;;;1.00;;
60169;SDS011;46042;49.444;6.862;2023-03-11T00:02:57;5.17;;;1.13;;
60169;SDS011;46042;49.444;6.862;2023-03-11T00:05:26;4.23;;;1.53;;
60169;SDS011;46042;49.444;6.862;2023-03-11T00:07:54;4.93;;;1.33;;
60169;SDS011;46042;49.444;6.862;2023-03-11T00:10:22;7.03;;;1.40;;
60169;SDS011;46042;49.444;6.862;2023-03-11T00:12:54;7.70;;;1.43;;
60169;SDS011;46042;49.444;6.862;2023-03-11T00:15:21;9.87;;;1.27;;
60169;SDS011;46042;49.444;6.862;2023-03-11T00:17:48;2.70;;;1.30;;
60169;SDS011;46042;49.444;6.862;2023-03-11T00:20:29;1.93;;;1.10;;
60169;SDS011;46042;49.444;6.862;2023-03-11T00:25:24;4.97;;;1.20;;
60169;SDS011;46042;49.444;6.862;2023-03-11T00:27:52;6.73;;;1.13;;
60169;SDS011;46042;49.444;6.862;2023-03-11T00:30:20;4.80;;;1.20;;
60169;SDS011;46042;49.444;6.862;2023-03-11T00:32:47;4.53;;;1.40;;
60169;SDS011;46042;49.444;6.862;2023-03-11T00:35:17;10.17;;;3.33;;
60169;SDS011;46042;49.444;6.862;2023-03-11T00:37:47;4.57;;;1.43;;
60169;SDS011;46042;49.444;6.862;2023-03-11T00:40:15;5.43;;;1.73;;
60169;SDS011;46042;49.444;6.862;2023-03-11T00:42:44;15.93;;;1.42;;
60169;SDS011;46042;49.444;6.862;2023-03-11T00:45:12;2.33;;;1.10;;
60169;SDS011;46042;49.444;6.862;2023-03-11T00:47:39;3.67;;;1.43;;
60169;SDS011;46042;49.444;6.862;2023-03-11T00:50:06;1.90;;;1.40;;
60169;SDS011;46042;49.444;6.862;2023-03-11T00:52:34;2.13;;;1.10;;
60169;SDS011;46042;49.444;6.862;2023-03-11T00:55:01;1.90;;;1.00;;
60169;SDS011;46042;49.444;6.862;2023-03-11T00:57:28;0.90;;;0.80;;
60169;SDS011;46042;49.444;6.862;2023-03-11T00:59:55;1.27;;;0.90;;
60169;SDS011;46042;49.444;6.862;2023-03-11T01:02:21;1.93;;;1.10;;
60169;SDS011;46042;49.444;6.862;2023-03-11T01:04:52;9.40;;;1.40;;
60169;SDS011;46042;49.444;6.862;2023-03-11T01:09:46;4.60;;;1.30;;
60169;SDS011;46042;49.444;6.862;2023-03-11T01:12:13;7.93;;;1.93;;
60169;SDS011;46042;49.444;6.862;2023-03-11T01:14:39;1.37;;;0.90;;
60169;SDS011;46042;49.444;6.862;2023-03-11T01:17:06;2.20;;;1.30;;
60169;SDS011;46042;49.444;6.862;2023-03-11T01:19:33;2.57;;;1.23;;
60169;SDS011;46042;49.444;6.862;2023-03-11T01:21:59;8.30;;;1.33;;
60169;SDS011;46042;49.444;6.862;2023-03-11T01:24:26;5.27;;;1.63;;
60169;SDS011;46042;49.444;6.862;2023-03-11T01:26:52;5.23;;;1.30;;
60169;SDS011;46042;49.444;6.862;2023-03-11T01:29:19;5.10;;;1.10;;
60169;SDS011;46042;49.444;6.862;2023-03-11T01:31:46;2.17;;;1.17;;
60169;SDS011;46042;49.444;6.862;2023-03-11T01:34:12;2.13;;;1.30;;
60169;SDS011;46042;49.444;6.862;2023-03-11T01:36:39;12.37;;;2.03;;
60169;SDS011;46042;49.444;6.862;2023-03-11T01:39:05;2.90;;;1.40;;
60169;SDS011;46042;49.444;6.862;2023-03-11T01:41:32;3.80;;;1.33;;
60169;SDS011;46042;49.444;6.862;2023-03-11T01:43:59;1.97;;;0.97;;
60169;SDS011;46042;49.444;6.862;2023-03-11T01:46:36;6.33;;;1.63;;
60169;SDS011;46042;49.444;6.862;2023-03-11T01:49:18;4.10;;;1.27;;
60169;SDS011;46042;49.444;6.862;2023-03-11T01:51:47;4.40;;;1.67;;
60169;SDS011;46042;49.444;6.862;2023-03-11T01:56:49;1.67;;;1.00;;
60169;SDS011;46042;49.444;6.862;2023-03-11T01:59:18;8.60;;;1.40;;
60169;SDS011;46042;49.444;6.862;2023-03-11T02:01:52;3.80;;;1.13;;
60169;SDS011;46042;49.444;6.862;2023-03-11T02:04:27;4.53;;;1.40;;
60169;SDS011;46042;49.444;6.862;2023-03-11T02:06:54;6.60;;;1.30;;
60169;SDS011;46042;49.444;6.862;2023-03-11T02:09:21;5.80;;;1.53;;
60169;SDS011;46042;49.444;6.862;2023-03-11T02:11:49;4.83;;;1.13;;
60169;SDS011;46042;49.444;6.862;2023-03-11T02:14:16;2.63;;;1.63;;
60169;SDS011;46042;49.444;6.862;2023-03-11T02:16:43;1.87;;;0.80;;
60169;SDS011;46042;49.444;6.862;2023-03-11T02:19:29;5.13;;;1.50;;
60169;SDS011;46042;49.444;6.862;2023-03-11T02:22:10;2.47;;;1.20;;
60169;SDS011;46042;49.444;6.862;2023-03-11T02:27:39;3.77;;;1.40;;
60169;SDS011;46042;49.444;6.862;2023-03-11T02:30:11;10.33;;;1.83;;
60169;SDS011;46042;49.444;6.862;2023-03-11T02:32:38;5.67;;;2.20;;
60169;SDS011;46042;49.444;6.862;2023-03-11T02:35:06;4.07;;;1.27;;
60169;SDS011;46042;49.444;6.862;2023-03-11T02:37:33;6.37;;;1.20;;
60169;SDS011;46042;49.444;6.862;2023-03-11T02:42:49;1.30;;;1.07;;
60169;SDS011;46042;49.444;6.862;2023-03-11T02:45:18;8.20;;;1.07;;
60169;SDS011;46042;49.444;6.862;2023-03-11T02:47:47;3.80;;;0.80;;
60169;SDS011;46042;49.444;6.862;2023-03-11T02:50:15;2.97;;;1.10;;
60169;SDS011;46042;49.444;6.862;2023-03-11T02:52:43;4.50;;;1.40;;
60169;SDS011;46042;49.444;6.862;2023-03-11T02:55:10;4.50;;;1.20;;
60169;SDS011;46042;49.444;6.862;2023-03-11T02:57:37;6.60;;;1.43;;
60169;SDS011;46042;49.444;6.862;2023-03-11T03:00:04;16.83;;;1.60;;
60169;SDS011;46042;49.444;6.862;2023-03-11T03:02:38;9.60;;;1.33;;
60169;SDS011;46042;49.444;6.862;2023-03-11T03:05:05;2.30;;;1.03;;
60169;SDS011;46042;49.444;6.862;2023-03-11T03:07:33;2.27;;;0.80;;
60169;SDS011;46042;49.444;6.862;2023-03-11T03:09:59;6.07;;;2.10;;
60169;SDS011;46042;49.444;6.862;2023-03-11T03:12:26;0.80;;;0.80;;
60169;SDS011;46042;49.444;6.862;2023-03-11T03:14:53;0.70;;;0.70;;
60169;SDS011;46042;49.444;6.862;2023-03-11T03:17:19;4.20;;;1.10;;
60169;SDS011;46042;49.444;6.862;2023-03-11T03:19:46;7.77;;;1.73;;
60169;SDS011;46042;49.444;6.862;2023-03-11T03:22:13;4.30;;;1.30;;
60169;SDS011;46042;49.444;6.862;2023-03-11T03:24:39;3.10;;;1.20;;
60169;SDS011;46042;49.444;6.862;2023-03-11T03:27:06;1.90;;;1.07;;
60169;SDS011;46042;49.444;6.862;2023-03-11T03:29:32;9.23;;;1.53;;
60169;SDS011;46042;49.444;6.862;2023-03-11T03:31:59;10.97;;;1.30;;
60169;SDS011;46042;49.444;6.862;2023-03-11T03:34:26;7.03;;;1.50;;
60169;SDS011;46042;49.444;6.862;2023-03-11T03:36:52;11.13;;;2.27;;
60169;SDS011;46042;49.444;6.862;2023-03-11T03:39:19;3.67;;;1.40;;
60169;SDS011;46042;49.444;6.862;2023-03-11T03:41:45;5.17;;;1.50;;
60169;SDS011;46042;49.444;6.862;2023-03-11T03:44:12;4.57;;;1.53;;
60169;SDS011;46042;49.444;6.862;2023-03-11T03:46:39;5.37;;;1.50;;
60169;SDS011;46042;49.444;6.862;2023-03-11T03:49:06;9.03;;;2.00;;
60169;SDS011;46042;49.444;6.862;2023-03-11T03:51:32;3.33;;;1.27;;
60169;SDS011;46042;49.444;6.862;2023-03-11T03:53:59;4.60;;;1.67;;
60169;SDS011;46042;49.444;6.862;2023-03-11T03:56:26;7.37;;;1.50;;
60169;SDS011;46042;49.444;6.862;2023-03-11T03:58:52;2.97;;;1.40;;
60169;SDS011;46042;49.444;6.862;2023-03-11T04:01:19;4.07;;;1.30;;
60169;SDS011;46042;49.444;6.862;2023-03-11T04:03:46;1.43;;;0.83;;
60169;SDS011;46042;49.444;6.862;2023-03-11T04:06:17;2.10;;;1.20;;
60169;SDS011;46042;49.444;6.862;2023-03-11T04:08:51;14.03;;;5.73;;
60169;SDS011;46042;49.444;6.862;2023-03-11T04:11:19;10.27;;;2.55;;
60169;SDS011;46042;49.444;6.862;2023-03-11T04:13:46;4.40;;;2.20;;
60169;SDS011;46042;49.444;6.862;2023-03-11T04:16:17;4.60;;;1.80;;
60169;SDS011;46042;49.444;6.862;2023-03-11T04:18:45;4.00;;;1.27;;
60169;SDS011;46042;49.444;6.862;2023-03-11T04:21:13;1.60;;;1.37;;
60169;SDS011;46042;49.444;6.862;2023-03-11T04:23:40;1.53;;;1.13;;
60169;SDS011;46042;49.444;6.862;2023-03-11T04:26:06;12.77;;;5.27;;
60169;SDS011;46042;49.444;6.862;2023-03-11T04:28:33;11.20;;;5.03;;
60169;SDS011;46042;49.444;6.862;2023-03-11T04:30:59;10.40;;;3.40;;
60169;SDS011;46042;49.444;6.862;2023-03-11T04:33:26;5.37;;;2.93;;
60169;SDS011;46042;49.444;6.862;2023-03-11T04:35:53;11.70;;;3.00;;
60169;SDS011;46042;49.444;6.862;2023-03-11T04:38:19;6.20;;;1.60;;
60169;SDS011;46042;49.444;6.862;2023-03-11T04:40:46;6.13;;;2.10;;
60169;SDS011;46042;49.444;6.862;2023-03-11T04:43:13;3.87;;;1.57;;
60169;SDS011;46042;49.444;6.862;2023-03-11T04:45:40;2.07;;;1.20;;
60169;SDS011;46042;49.444;6.862;2023-03-11T04:48:09;2.20;;;1.20;;
60169;SDS011;46042;49.444;6.862;2023-03-11T04:50:36;12.53;;;2.40;;
60169;SDS011;46042;49.444;6.862;2023-03-11T04:53:03;1.73;;;0.97;;
60169;SDS011;46042;49.444;6.862;2023-03-11T04:55:29;2.23;;;1.13;;
60169;SDS011;46042;49.444;6.862;2023-03-11T04:57:56;9.30;;;1.33;;
60169;SDS011;46042;49.444;6.862;2023-03-11T05:00:22;1.60;;;1.17;;
60169;SDS011;46042;49.444;6.862;2023-03-11T05:02:50;1.37;;;0.90;;
60169;SDS011;46042;49.444;6.862;2023-03-11T05:05:17;1.27;;;1.00;;
60169;SDS011;46042;49.444;6.862;2023-03-11T05:07:45;2.77;;;1.73;;
60169;SDS011;46042;49.444;6.862;2023-03-11T05:10:11;3.07;;;1.07;;
60169;SDS011;46042;49.444;6.862;2023-03-11T05:12:39;3.30;;;0.97;;
60169;SDS011;46042;49.444;6.862;2023-03-11T05:15:06;1.53;;;0.93;;
60169;SDS011;46042;49.444;6.862;2023-03-11T05:17:33;2.63;;;1.43;;
60169;SDS011;46042;49.444;6.862;2023-03-11T05:20:00;3.53;;;1.67;;
60169;SDS011;46042;49.444;6.862;2023-03-11T05:22:26;2.60;;;0.83;;
60169;SDS011;46042;49.444;6.862;2023-03-11T05:24:53;2.43;;;1.10;;
60169;SDS011;46042;49.444;6.862;2023-03-11T05:27:19;4.73;;;1.20;;
60169;SDS011;46042;49.444;6.862;2023-03-11T05:29:46;2.43;;;1.23;;
60169;SDS011;46042;49.444;6.862;2023-03-11T05:32:13;8.40;;;1.23;;
60169;SDS011;46042;49.444;6.862;2023-03-11T05:34:40;1.80;;;1.10;;
60169;SDS011;46042;49.444;6.862;2023-03-11T05:37:07;1.23;;;1.10;;
60169;SDS011;46042;49.444;6.862;2023-03-11T05:39:33;6.40;;;1.00;;
60169;SDS011;46042;49.444;6.862;2023-03-11T05:42:00;7.03;;;1.07;;
60169;SDS011;46042;49.444;6.862;2023-03-11T05:44:26;0.83;;;0.70;;
60169;SDS011;46042;49.444;6.862;2023-03-11T05:46:53;1.17;;;1.00;;
60169;SDS011;46042;49.444;6.862;2023-03-11T05:49:20;3.03;;;1.10;;
60169;SDS011;46042;49.444;6.862;2023-03-11T05:51:47;4.87;;;1.40;;
60169;SDS011;46042;49.444;6.862;2023-03-11T05:54:15;1.47;;;0.90;;
60169;SDS011;46042;49.444;6.862;2023-03-11T05:56:42;5.13;;;1.13;;
60169;SDS011;46042;49.444;6.862;2023-03-11T05:59:11;6.13;;;1.27;;
60169;SDS011;46042;49.444;6.862;2023-03-11T06:04:08;5.03;;;1.33;;
60169;SDS011;46042;49.444;6.862;2023-03-11T06:06:36;1.20;;;0.77;;
60169;SDS011;46042;49.444;6.862;2023-03-11T06:09:04;0.87;;;0.80;;
60169;SDS011;46042;49.444;6.862;2023-03-11T06:11:31;1.60;;;0.87;;
60169;SDS011;46042;49.444;6.862;2023-03-11T06:13:58;5.90;;;1.20;;
60169;SDS011;46042;49.444;6.862;2023-03-11T06:16:24;4.53;;;1.33;;
60169;SDS011;46042;49.444;6.862;2023-03-11T06:18:52;7.83;;;0.80;;
60169;SDS011;46042;49.444;6.862;2023-03-11T06:21:19;1.27;;;0.80;;
60169;SDS011;46042;49.444;6.862;2023-03-11T06:23:49;1.83;;;1.00;;
60169;SDS011;46042;49.444;6.862;2023-03-11T06:26:17;1.63;;;0.97;;
60169;SDS011;46042;49.444;6.862;2023-03-11T06:28:47;8.30;;;1.30;;
60169;SDS011;46042;49.444;6.862;2023-03-11T06:31:16;4.07;;;2.03;;
60169;SDS011;46042;49.444;6.862;2023-03-11T06:33:45;2.63;;;1.20;;
60169;SDS011;46042;49.444;6.862;2023-03-11T06:36:12;2.60;;;0.90;;
60169;SDS011;46042;49.444;6.862;2023-03-11T06:38:40;2.97;;;1.30;;
60169;SDS011;46042;49.444;6.862;2023-03-11T06:41:08;0.73;;;0.70;;
60169;SDS011;46042;49.444;6.862;2023-03-11T06:43:35;1.50;;;0.70;;
60169;SDS011;46042;49.444;6.862;2023-03-11T06:46:09;4.77;;;0.80;;
60169;SDS011;46042;49.444;6.862;2023-03-11T06:48:37;3.17;;;1.23;;
60169;SDS011;46042;49.444;6.862;2023-03-11T06:51:04;14.87;;;2.43;;
60169;SDS011;46042;49.444;6.862;2023-03-11T06:53:31;18.50;;;7.20;;
60169;SDS011;46042;49.444;6.862;2023-03-11T06:56:11;5.40;;;3.37;;
60169;SDS011;46042;49.444;6.862;2023-03-11T06:58:39;14.90;;;3.45;;
60169;SDS011;46042;49.444;6.862;2023-03-11T07:01:07;10.23;;;3.57;;
60169;SDS011;46042;49.444;6.862;2023-03-11T07:03:39;5.57;;;2.80;;
60169;SDS011;46042;49.444;6.862;2023-03-11T07:06:10;5.17;;;1.70;;
60169;SDS011;46042;49.444;6.862;2023-03-11T07:08:39;2.93;;;1.73;;
60169;SDS011;46042;49.444;6.862;2023-03-11T07:11:07;6.87;;;2.70;;
60169;SDS011;46042;49.444;6.862;2023-03-11T07:13:45;7.97;;;5.00;;
60169;SDS011;46042;49.444;6.862;2023-03-11T07:16:13;12.20;;;5.97;;
60169;SDS011;46042;49.444;6.862;2023-03-11T07:18:42;23.30;;;11.83;;
60169;SDS011;46042;49.444;6.862;2023-03-11T07:21:10;29.13;;;13.10;;
60169;SDS011;46042;49.444;6.862;2023-03-11T07:23:39;14.93;;;5.63;;
60169;SDS011;46042;49.444;6.862;2023-03-11T07:26:08;12.27;;;6.57;;
60169;SDS011;46042;49.444;6.862;2023-03-11T07:28:40;7.88;;;3.85;;
60169;SDS011;46042;49.444;6.862;2023-03-11T07:31:10;6.60;;;2.88;;
60169;SDS011;46042;49.444;6.862;2023-03-11T07:33:39;8.93;;;4.18;;
60169;SDS011;46042;49.444;6.862;2023-03-11T07:36:06;4.38;;;2.75;;
60169;SDS011;46042;49.444;6.862;2023-03-11T07:38:35;8.65;;;3.05;;
60169;SDS011;46042;49.444;6.862;2023-03-11T07:41:01;14.15;;;5.30;;
60169;SDS011;46042;49.444;6.862;2023-03-11T07:43:28;9.48;;;4.38;;
60169;SDS011;46042;49.444;6.862;2023-03-11T07:48:36;10.15;;;3.30;;
60169;SDS011;46042;49.444;6.862;2023-03-11T07:51:09;3.63;;;2.00;;
60169;SDS011;46042;49.444;6.862;2023-03-11T07:53:36;2.88;;;2.42;;
60169;SDS011;46042;49.444;6.862;2023-03-11T07:56:03;7.38;;;2.30;;
60169;SDS011;46042;49.444;6.862;2023-03-11T07:58:30;6.03;;;2.08;;
60169;SDS011;46042;49.444;6.862;2023-03-11T08:01:01;3.05;;;2.17;;
60169;SDS011;46042;49.444;6.862;2023-03-11T08:03:30;10.40;;;2.85;;
60169;SDS011;46042;49.444;6.862;2023-03-11T08:05:56;3.95;;;2.15;;
60169;SDS011;46042;49.444;6.862;2023-03-11T08:08:23;4.28;;;2.28;;
60169;SDS011;46042;49.444;6.862;2023-03-11T08:10:49;9.63;;;2.88;;
60169;SDS011;46042;49.444;6.862;2023-03-11T08:13:16;9.50;;;2.60;;
60169;SDS011;46042;49.444;6.862;2023-03-11T08:15:42;7.50;;;3.25;;
60169;SDS011;46042;49.444;6.862;2023-03-11T08:18:09;11.10;;;3.22;;
60169;SDS011;46042;49.444;6.862;2023-03-11T08:20:37;13.65;;;3.55;;
60169;SDS011;46042;49.444;6.862;2023-03-11T08:23:04;19.33;;;3.03;;
60169;SDS011;46042;49.444;6.862;2023-03-11T08:25:31;6.28;;;2.40;;
60169;SDS011;46042;49.444;6.862;2023-03-11T08:27:57;4.63;;;2.58;;
60169;SDS011;46042;49.444;6.862;2023-03-11T08:30:24;7.07;;;2.58;;
60169;SDS011;46042;49.444;6.862;2023-03-11T08:32:51;7.28;;;2.72;;
60169;SDS011;46042;49.444;6.862;2023-03-11T08:35:17;9.90;;;2.10;;
60169;SDS011;46042;49.444;6.862;2023-03-11T08:37:44;2.63;;;1.83;;
60169;SDS011;46042;49.444;6.862;2023-03-11T08:40:11;5.55;;;2.28;;
60169;SDS011;46042;49.444;6.862;2023-03-11T08:42:38;6.47;;;2.15;;
60169;SDS011;46042;49.444;6.862;2023-03-11T08:45:04;9.95;;;2.60;;
60169;SDS011;46042;49.444;6.862;2023-03-11T08:47:35;7.18;;;2.15;;
60169;SDS011;46042;49.444;6.862;2023-03-11T08:50:06;9.02;;;2.33;;
60169;SDS011;46042;49.444;6.862;2023-03-11T08:52:38;6.88;;;2.33;;
60169;SDS011;46042;49.444;6.862;2023-03-11T08:55:04;7.10;;;1.73;;
60169;SDS011;46042;49.444;6.862;2023-03-11T08:57:33;5.68;;;1.83;;
60169;SDS011;46042;49.444;6.862;2023-03-11T09:00:00;5.25;;;2.10;;
60169;SDS011;46042;49.444;6.862;2023-03-11T09:02:27;5.18;;;2.58;;
60169;SDS011;46042;49.444;6.862;2023-03-11T09:04:53;2.03;;;1.50;;
60169;SDS011;46042;49.444;6.862;2023-03-11T09:07:20;5.55;;;2.05;;
60169;SDS011;46042;49.444;6.862;2023-03-11T09:09:47;7.30;;;2.03;;
60169;SDS011;46042;49.444;6.862;2023-03-11T09:12:13;6.50;;;1.83;;
60169;SDS011;46042;49.444;6.862;2023-03-11T09:14:40;5.10;;;1.77;;
60169;SDS011;46042;49.444;6.862;2023-03-11T09:17:08;2.53;;;1.45;;
60169;SDS011;46042;49.444;6.862;2023-03-11T09:19:35;5.55;;;2.00;;
60169;SDS011;46042;49.444;6.862;2023-03-11T09:22:02;4.50;;;1.40;;
60169;SDS011;46042;49.444;6.862;2023-03-11T09:24:33;3.33;;;1.83;;
60169;SDS011;46042;49.444;6.862;2023-03-11T09:27:00;9.32;;;1.77;;
60169;SDS011;46042;49.444;6.862;2023-03-11T09:29:27;5.32;;;1.50;;
60169;SDS011;46042;49.444;6.862;2023-03-11T09:31:54;2.88;;;1.38;;
60169;SDS011;46042;49.444;6.862;2023-03-11T09:34:21;4.53;;;1.65;;
60169;SDS011;46042;49.444;6.862;2023-03-11T09:36:48;3.15;;;1.30;;
60169;SDS011;46042;49.444;6.862;2023-03-11T09:39:15;4.75;;;1.30;;
60169;SDS011;46042;49.444;6.862;2023-03-11T09:41:58;4.50;;;1.92;;
60169;SDS011;46042;49.444;6.862;2023-03-11T09:49:46;5.25;;;1.77;;
60169;SDS011;46042;49.444;6.862;2023-03-11T09:55:29;1.67;;;1.08;;
60169;SDS011;46042;49.444;6.862;2023-03-11T09:58:12;3.28;;;1.33;;
60169;SDS011;46042;49.444;6.862;2023-03-11T10:00:40;6.25;;;1.45;;
60169;SDS011;46042;49.444;6.862;2023-03-11T10:03:11;5.10;;;1.30;;
60169;SDS011;46042;49.444;6.862;2023-03-11T10:05:48;3.42;;;1.33;;
60169;SDS011;46042;49.444;6.862;2023-03-11T10:14:00;2.67;;;1.50;;
60169;SDS011;46042;49.444;6.862;2023-03-11T10:27:40;3.80;;;1.13;;
60169;SDS011;46042;49.444;6.862;2023-03-11T10:30:24;3.35;;;1.48;;
60169;SDS011;46042;49.444;6.862;2023-03-11T10:35:41;2.35;;;1.27;;
60169;SDS011;46042;49.444;6.862;2023-03-11T10:40:45;4.45;;;1.65;;
60169;SDS011;46042;49.444;6.862;2023-03-11T10:43:17;2.92;;;1.30;;
60169;SDS011;46042;49.444;6.862;2023-03-11T10:45:50;3.67;;;1.63;;
60169;SDS011;46042;49.444;6.862;2023-03-11T10:48:18;8.70;;;2.05;;
60169;SDS011;46042;49.444;6.862;2023-03-11T10:51:32;4.45;;;1.50;;
60169;SDS011;46042;49.444;6.862;2023-03-11T10:53:54;4.68;;;1.40;;
60169;SDS011;46042;49.444;6.862;2023-03-11T10:56:27;4.53;;;2.03;;
60169;SDS011;46042;49.444;6.862;2023-03-11T10:59:03;3.53;;;1.50;;
60169;SDS011;46042;49.444;6.862;2023-03-11T11:01:31;3.30;;;1.38;;
60169;SDS011;46042;49.444;6.862;2023-03-11T11:03:59;5.60;;;1.60;;
60169;SDS011;46042;49.444;6.862;2023-03-11T11:06:31;4.85;;;2.03;;
60169;SDS011;46042;49.444;6.862;2023-03-11T11:11:37;2.78;;;1.70;;
60169;SDS011;46042;49.444;6.862;2023-03-11T11:14:04;3.97;;;2.15;;
60169;SDS011;46042;49.444;6.862;2023-03-11T11:16:32;2.42;;;1.45;;
60169;SDS011;46042;49.444;6.862;2023-03-11T11:21:38;1.23;;;1.13;;
60169;SDS011;46042;49.444;6.862;2023-03-11T11:27:32;4.40;;;1.58;;
60169;SDS011;46042;49.444;6.862;2023-03-11T11:29:44;3.45;;;1.23;;
60169;SDS011;46042;49.444;6.862;2023-03-11T11:35:02;7.82;;;1.70;;
60169;SDS011;46042;49.444;6.862;2023-03-11T11:37:34;6.10;;;1.92;;
60169;SDS011;46042;49.444;6.862;2023-03-11T11:43:00;2.50;;;1.42;;
60169;SDS011;46042;49.444;6.862;2023-03-11T11:45:37;2.75;;;1.48;;
60169;SDS011;46042;49.444;6.862;2023-03-11T11:50:43;4.65;;;1.63;;
60169;SDS011;46042;49.444;6.862;2023-03-11T11:53:18;6.32;;;2.10;;
60169;SDS011;46042;49.444;6.862;2023-03-11T11:56:07;3.85;;;1.50;;
60169;SDS011;46042;49.444;6.862;2023-03-11T11:58:34;6.45;;;1.88;;
60169;SDS011;46042;49.444;6.862;2023-03-11T12:06:34;4.25;;;1.58;;
60169;SDS011;46042;49.444;6.862;2023-03-11T12:09:20;2.63;;;1.42;;
60169;SDS011;46042;49.444;6.862;2023-03-11T12:17:21;8.10;;;1.70;;
60169;SDS011;46042;49.444;6.862;2023-03-11T12:20:00;6.13;;;2.08;;
60169;SDS011;46042;49.444;6.862;2023-03-11T12:25:30;3.30;;;1.50;;
60169;SDS011;46042;49.444;6.862;2023-03-11T12:30:36;5.15;;;1.58;;
60169;SDS011;46042;49.444;6.862;2023-03-11T12:33:16;4.47;;;1.20;;
60169;SDS011;46042;49.444;6.862;2023-03-11T12:35:53;6.63;;;1.23;;
60169;SDS011;46042;49.444;6.862;2023-03-11T12:38:26;3.08;;;1.83;;
60169;SDS011;46042;49.444;6.862;2023-03-11T12:41:02;4.93;;;1.40;;
60169;SDS011;46042;49.444;6.862;2023-03-11T12:46:02;3.13;;;1.33;;
60169;SDS011;46042;49.444;6.862;2023-03-11T12:57:52;5.40;;;1.70;;
60169;SDS011;46042;49.444;6.862;2023-03-11T13:08:00;5.43;;;1.83;;
60169;SDS011;46042;49.444;6.862;2023-03-11T13:10:37;2.35;;;1.50;;
60169;SDS011;46042;49.444;6.862;2023-03-11T13:13:21;6.00;;;1.75;;
60169;SDS011;46042;49.444;6.862;2023-03-11T13:18:44;8.40;;;1.80;;
60169;SDS011;46042;49.444;6.862;2023-03-11T13:41:13;5.22;;;1.42;;
60169;SDS011;46042;49.444;6.862;2023-03-11T13:43:48;5.57;;;1.25;;
60169;SDS011;46042;49.444;6.862;2023-03-11T13:46:27;3.72;;;1.50;;
60169;SDS011;46042;49.444;6.862;2023-03-11T13:49:24;4.43;;;1.30;;
60169;SDS011;46042;49.444;6.862;2023-03-11T13:51:57;6.32;;;2.17;;
60169;SDS011;46042;49.444;6.862;2023-03-11T13:54:30;3.75;;;1.48;;
60169;SDS011;46042;49.444;6.862;2023-03-11T13:57:03;5.38;;;1.20;;
60169;SDS011;46042;49.444;6.862;2023-03-11T13:59:31;3.15;;;1.33;;
60169;SDS011;46042;49.444;6.862;2023-03-11T14:02:16;2.25;;;1.40;;
60169;SDS011;46042;49.444;6.862;2023-03-11T14:05:01;3.80;;;1.33;;
60169;SDS011;46042;49.444;6.862;2023-03-11T14:07:32;2.20;;;0.95;;
60169;SDS011;46042;49.444;6.862;2023-03-11T14:12:37;2.00;;;1.30;;
60169;SDS011;46042;49.444;6.862;2023-03-11T14:15:04;7.90;;;2.10;;
60169;SDS011;46042;49.444;6.862;2023-03-11T14:17:34;6.85;;;1.33;;
60169;SDS011;46042;49.444;6.862;2023-03-11T14:22:45;7.07;;;2.08;;
60169;SDS011;46042;49.444;6.862;2023-03-11T14:25:23;1.75;;;1.25;;
60169;SDS011;46042;49.444;6.862;2023-03-11T14:30:30;3.17;;;2.08;;
60169;SDS011;46042;49.444;6.862;2023-03-11T14:35:26;5.80;;;1.80;;
60169;SDS011;46042;49.444;6.862;2023-03-11T14:37:53;5.57;;;1.58;;
60169;SDS011;46042;49.444;6.862;2023-03-11T14:42:59;5.65;;;1.45;;
60169;SDS011;46042;49.444;6.862;2023-03-11T14:45:29;4.28;;;1.33;;
60169;SDS011;46042;49.444;6.862;2023-03-11T14:50:31;3.72;;;1.30;;
60169;SDS011;46042;49.444;6.862;2023-03-11T14:58:30;2.60;;;1.40;;
60169;SDS011;46042;49.444;6.862;2023-03-11T15:03:33;4.07;;;1.70;;
60169;SDS011;46042;49.444;6.862;2023-03-11T15:06:07;4.53;;;2.20;;
60169;SDS011;46042;49.444;6.862;2023-03-11T15:08:44;4.22;;;2.05;;
60169;SDS011;46042;49.444;6.862;2023-03-11T15:11:42;2.95;;;1.55;;
60169;SDS011;46042;49.444;6.862;2023-03-11T15:14:24;2.30;;;1.50;;
60169;SDS011;46042;49.444;6.862;2023-03-11T15:16:53;3.72;;;1.63;;
60169;SDS011;46042;49.444;6.862;2023-03-11T15:19:33;4.80;;;1.73;;
60169;SDS011;46042;49.444;6.862;2023-03-11T15:22:20;5.88;;;2.13;;
60169;SDS011;46042;49.444;6.862;2023-03-11T15:25:17;8.13;;;2.38;;
60169;SDS011;46042;49.444;6.862;2023-03-11T15:27:45;3.60;;;1.30;;
60169;SDS011;46042;49.444;6.862;2023-03-11T15:30:29;3.05;;;1.60;;
60169;SDS011;46042;49.444;6.862;2023-03-11T15:32:57;3.45;;;1.70;;
60169;SDS011;46042;49.444;6.862;2023-03-11T15:35:25;2.58;;;1.70;;
60169;SDS011;46042;49.444;6.862;2023-03-11T15:40:59;11.77;;;4.53;;
60169;SDS011;46042;49.444;6.862;2023-03-11T15:43:32;7.65;;;3.10;;
60169;SDS011;46042;49.444;6.862;2023-03-11T15:46:07;13.40;;;5.13;;
60169;SDS011;46042;49.444;6.862;2023-03-11T15:48:36;1.85;;;1.55;;
60169;SDS011;46042;49.444;6.862;2023-03-11T15:51:03;5.75;;;2.58;;
60169;SDS011;46042;49.444;6.862;2023-03-11T15:53:29;4.90;;;1.48;;
60169;SDS011;46042;49.444;6.862;2023-03-11T15:55:57;4.78;;;1.45;;
60169;SDS011;46042;49.444;6.862;2023-03-11T15:58:33;6.57;;;1.77;;
60169;SDS011;46042;49.444;6.862;2023-03-11T16:01:01;3.53;;;1.88;;
60169;SDS011;46042;49.444;6.862;2023-03-11T16:03:29;1.63;;;1.42;;
60169;SDS011;46042;49.444;6.862;2023-03-11T16:05:56;5.32;;;1.75;;
60169;SDS011;46042;49.444;6.862;2023-03-11T16:08:23;7.75;;;3.45;;
60169;SDS011;46042;49.444;6.862;2023-03-11T16:10:50;2.63;;;1.60;;
60169;SDS011;46042;49.444;6.862;2023-03-11T16:13:16;1.92;;;1.30;;
60169;SDS011;46042;49.444;6.862;2023-03-11T16:15:43;1.25;;;1.10;;
60169;SDS011;46042;49.444;6.862;2023-03-11T16:18:12;3.33;;;1.13;;
60169;SDS011;46042;49.444;6.862;2023-03-11T16:20:40;3.90;;;1.70;;
60169;SDS011;46042;49.444;6.862;2023-03-11T16:23:17;10.48;;;4.78;;
60169;SDS011;46042;49.444;6.862;2023-03-11T16:25:46;4.18;;;2.00;;
60169;SDS011;46042;49.444;6.862;2023-03-11T16:28:14;3.85;;;1.73;;
60169;SDS011;46042;49.444;6.862;2023-03-11T16:30:42;7.40;;;1.90;;
60169;SDS011;46042;49.444;6.862;2023-03-11T16:33:09;6.80;;;1.80;;
60169;SDS011;46042;49.444;6.862;2023-03-11T16:35:36;6.43;;;2.72;;
60169;SDS011;46042;49.444;6.862;2023-03-11T16:38:03;3.30;;;1.35;;
60169;SDS011;46042;49.444;6.862;2023-03-11T16:40:30;3.47;;;1.88;;
60169;SDS011;46042;49.444;6.862;2023-03-11T16:42:59;2.08;;;1.10;;
60169;SDS011;46042;49.444;6.862;2023-03-11T16:45:30;8.88;;;1.95;;
60169;SDS011;46042;49.444;6.862;2023-03-11T16:47:57;3.47;;;1.63;;
60169;SDS011;46042;49.444;6.862;2023-03-11T16:50:24;3.88;;;1.58;;
60169;SDS011;46042;49.444;6.862;2023-03-11T16:52:52;4.82;;;1.90;;
60169;SDS011;46042;49.444;6.862;2023-03-11T16:55:20;2.97;;;1.40;;
60169;SDS011;46042;49.444;6.862;2023-03-11T18:13:38;7.47;;;3.83;;
60169;SDS011;46042;49.444;6.862;2023-03-11T18:16:10;5.38;;;2.75;;
60169;SDS011;46042;49.444;6.862;2023-03-11T18:18:39;3.42;;;1.58;;
60169;SDS011;46042;49.444;6.862;2023-03-11T18:21:08;4.20;;;1.75;;
60169;SDS011;46042;49.444;6.862;2023-03-11T18:23:40;3.83;;;1.42;;
60169;SDS011;46042;49.444;6.862;2023-03-11T18:26:07;2.90;;;1.57;;
60169;SDS011;46042;49.444;6.862;2023-03-11T18:28:35;4.13;;;1.35;;
60169;SDS011;46042;49.444;6.862;2023-03-11T18:31:06;4.50;;;0.97;;
60169;SDS011;46042;49.444;6.862;2023-03-11T18:36:16;3.45;;;1.05;;
60169;SDS011;46042;49.444;6.862;2023-03-11T18:38:45;5.67;;;1.57;;
60169;SDS011;46042;49.444;6.862;2023-03-11T18:41:12;3.20;;;1.40;;
60169;SDS011;46042;49.444;6.862;2023-03-11T18:43:40;4.43;;;1.03;;
60169;SDS011;46042;49.444;6.862;2023-03-11T18:46:10;5.17;;;1.63;;
60169;SDS011;46042;49.444;6.862;2023-03-11T18:48:40;7.13;;;1.37;;